Aviation Digital Data Service (ADDS)

Output produced by METARs form (0512 UTC 16 February 2019)
found at http://www.aviationweather.gov/metar/data/
 
METAR text: LLBG 160450Z 19009KT 4000 SHRA FEW010 FEW021TCU BKN024 11/10 Q1018 RETS NOSIG
Conditions at: LLBG (BEN-GURION(CIV/M, IL) observed 0450 UTC 16 February 2019
Temperature: 11.0°C (52°F)
Dewpoint: 10.0°C (50°F) [RH = 94%]
Pressure (altimeter): 30.06 inches Hg (1018.0 mb)
Winds: from the S (190 degrees) at 10 MPH (9 knots; 4.6 m/s)
Visibility: 2.49 miles (4.01 km)
Ceiling: 2400 feet AGL
Clouds: few clouds at 1000 feet AGL
few clouds at 2100 feet AGL
broken clouds at 2400 feet AGL
Weather: SHRA  (rain showers)

METAR text: LLBG 160420Z 16010KT 8000 -TSRA FEW017 FEW023CB BKN027 11/10 Q1018 NOSIG
Conditions at: LLBG (BEN-GURION(CIV/M, IL) observed 0420 UTC 16 February 2019
Temperature: 11.0°C (52°F)
Dewpoint: 10.0°C (50°F) [RH = 94%]
Pressure (altimeter): 30.06 inches Hg (1018.0 mb)
Winds: from the SSE (160 degrees) at 12 MPH (10 knots; 5.1 m/s)
Visibility: 5 miles ( 8 km)
Ceiling: 2700 feet AGL
Clouds: few clouds at 1700 feet AGL
few clouds at 2300 feet AGL
broken clouds at 2700 feet AGL
Weather: -TSRA  (light rain associated with thunderstorm(s))

METAR text: LLBG 160350Z 15008KT 9999 FEW023 BKN026 11/09 Q1017 TEMPO 22018KT 5000 TSRA FEW020CB BKN025
Conditions at: LLBG (BEN-GURION(CIV/M, IL) observed 0350 UTC 16 February 2019
Temperature: 11.0°C (52°F)
Dewpoint: 9.0°C (48°F) [RH = 87%]
Pressure (altimeter): 30.03 inches Hg (1017.0 mb)
Winds: from the SSE (150 degrees) at 9 MPH (8 knots; 4.1 m/s)
Visibility: 6 or more miles (10+ km)
Ceiling: 2600 feet AGL
Clouds: few clouds at 2300 feet AGL
broken clouds at 2600 feet AGL
Weather: no significant weather observed at this time

METAR text: LLBG 160320Z 16011KT 9999 FEW025 BKN030 11/09 Q1017 TEMPO 22018KT 5000 TSRA FEW020CB BKN025 RMK RERA
Conditions at: LLBG (BEN-GURION(CIV/M, IL) observed 0320 UTC 16 February 2019
Temperature: 11.0°C (52°F)
Dewpoint: 9.0°C (48°F) [RH = 87%]
Pressure (altimeter): 30.03 inches Hg (1017.0 mb)
Winds: from the SSE (160 degrees) at 13 MPH (11 knots; 5.7 m/s)
Visibility: 6 or more miles (10+ km)
Ceiling: 3000 feet AGL
Clouds: few clouds at 2500 feet AGL
broken clouds at 3000 feet AGL
Weather: no significant weather observed at this time

METAR text: LLBG 160250Z 17010KT 140V200 9999 -RA FEW023 SCT030 BKN050 12/10 Q1017 TEMPO 22018KT 5000 TSRA FEW020CB BKN025
Conditions at: LLBG (BEN-GURION(CIV/M, IL) observed 0250 UTC 16 February 2019
Temperature: 12.0°C (54°F)
Dewpoint: 10.0°C (50°F) [RH = 88%]
Pressure (altimeter): 30.03 inches Hg (1017.0 mb)
Winds: from the S (170 degrees) at 12 MPH (10 knots; 5.1 m/s)
Visibility: 6 or more miles (10+ km)
Ceiling: 5000 feet AGL
Clouds: few clouds at 2300 feet AGL
scattered clouds at 3000 feet AGL
broken clouds at 5000 feet AGL
Weather: -RA  (light rain)

METAR text: LLBG 160220Z 15010KT 9999 SCT024 12/10 Q1017 TEMPO 22018KT 5000 TSRA FEW020CB RMK BKN057 RERA
Conditions at: LLBG (BEN-GURION(CIV/M, IL) observed 0220 UTC 16 February 2019
Temperature: 12.0°C (54°F)
Dewpoint: 10.0°C (50°F) [RH = 88%]
Pressure (altimeter): 30.03 inches Hg (1017.0 mb)
Winds: from the SSE (150 degrees) at 12 MPH (10 knots; 5.1 m/s)
Visibility: 6 or more miles (10+ km)
Ceiling: at least 12,000 feet AGL
Clouds: scattered clouds at 2400 feet AGL
Weather: no significant weather observed at this time

METAR text: LLBG 160150Z 18009KT 150V210 9999 -RA FEW013 BKN022 12/10 Q1017 TEMPO 22018KT 5000 TSRA FEW020CB
Conditions at: LLBG (BEN-GURION(CIV/M, IL) observed 0150 UTC 16 February 2019
Temperature: 12.0°C (54°F)
Dewpoint: 10.0°C (50°F) [RH = 88%]
Pressure (altimeter): 30.03 inches Hg (1017.0 mb)
Winds: from the S (180 degrees) at 10 MPH (9 knots; 4.6 m/s)
Visibility: 6 or more miles (10+ km)
Ceiling: 2200 feet AGL
Clouds: few clouds at 1300 feet AGL
broken clouds at 2200 feet AGL
Weather: -RA  (light rain)

METAR text: LLBG 160120Z 18015KT 9000 -RA FEW023 SCT031 12/10 Q1016 TEMPO 24020G30KT 5000 TSRA FEW020CB RMK BKN057
Conditions at: LLBG (BEN-GURION(CIV/M, IL) observed 0120 UTC 16 February 2019
Temperature: 12.0°C (54°F)
Dewpoint: 10.0°C (50°F) [RH = 88%]
Pressure (altimeter): 30.00 inches Hg (1016.0 mb)
Winds: from the S (180 degrees) at 17 MPH (15 knots; 7.7 m/s)
Visibility: 6 miles ( 9 km)
Ceiling: at least 12,000 feet AGL
Clouds: few clouds at 2300 feet AGL
scattered clouds at 3100 feet AGL
Weather: -RA  (light rain)

METAR text: LLBG 160050Z 21012KT 9999 SCT018 SCT030 12/09 Q1016 RETSRA TEMPO 24020G30KT 5000 TSRA FEW020CB
Conditions at: LLBG (BEN-GURION(CIV/M, IL) observed 0050 UTC 16 February 2019
Temperature: 12.0°C (54°F)
Dewpoint: 9.0°C (48°F) [RH = 82%]
Pressure (altimeter): 30.00 inches Hg (1016.0 mb)
Winds: from the SSW (210 degrees) at 14 MPH (12 knots; 6.2 m/s)
Visibility: 6 or more miles (10+ km)
Ceiling: at least 12,000 feet AGL
Clouds: scattered clouds at 1800 feet AGL
scattered clouds at 3000 feet AGL
Weather: no significant weather observed at this time

METAR text: LLBG 160020Z 19014KT 9999 SCT022 SCT032 12/09 Q1016 TEMPO 24020G30KT 5000 TSRA FEW020CB
Conditions at: LLBG (BEN-GURION(CIV/M, IL) observed 0020 UTC 16 February 2019
Temperature: 12.0°C (54°F)
Dewpoint: 9.0°C (48°F) [RH = 82%]
Pressure (altimeter): 30.00 inches Hg (1016.0 mb)
Winds: from the S (190 degrees) at 16 MPH (14 knots; 7.2 m/s)
Visibility: 6 or more miles (10+ km)
Ceiling: at least 12,000 feet AGL
Clouds: scattered clouds at 2200 feet AGL
scattered clouds at 3200 feet AGL
Weather: no significant weather observed at this time

METAR text: LLBG 152350Z 18013KT 9999 SCT025 SCT040 12/09 Q1016 TEMPO 7000 RA FEW025TCU
Conditions at: LLBG (BEN-GURION(CIV/M, IL) observed 2350 UTC 15 February 2019
Temperature: 12.0°C (54°F)
Dewpoint: 9.0°C (48°F) [RH = 82%]
Pressure (altimeter): 30.00 inches Hg (1016.0 mb)
Winds: from the S (180 degrees) at 15 MPH (13 knots; 6.7 m/s)
Visibility: 6 or more miles (10+ km)
Ceiling: at least 12,000 feet AGL
Clouds: scattered clouds at 2500 feet AGL
scattered clouds at 4000 feet AGL
Weather: no significant weather observed at this time

METAR text: LLBG 152320Z 20008KT 9999 SCT020 SCT030 12/09 Q1016 RERA TEMPO 7000 RA FEW025TCU
Conditions at: LLBG (BEN-GURION(CIV/M, IL) observed 2320 UTC 15 February 2019
Temperature: 12.0°C (54°F)
Dewpoint: 9.0°C (48°F) [RH = 82%]
Pressure (altimeter): 30.00 inches Hg (1016.0 mb)
Winds: from the SSW (200 degrees) at 9 MPH (8 knots; 4.1 m/s)
Visibility: 6 or more miles (10+ km)
Ceiling: at least 12,000 feet AGL
Clouds: scattered clouds at 2000 feet AGL
scattered clouds at 3000 feet AGL
Weather: no significant weather observed at this time

METAR text: LLBG 152250Z 21007KT 9000 RA SCT020 BKN030 12/09 Q1016 NOSIG
Conditions at: LLBG (BEN-GURION(CIV/M, IL) observed 2250 UTC 15 February 2019
Temperature: 12.0°C (54°F)
Dewpoint: 9.0°C (48°F) [RH = 82%]
Pressure (altimeter): 30.00 inches Hg (1016.0 mb)
Winds: from the SSW (210 degrees) at 8 MPH (7 knots; 3.6 m/s)
Visibility: 6 miles ( 9 km)
Ceiling: 3000 feet AGL
Clouds: scattered clouds at 2000 feet AGL
broken clouds at 3000 feet AGL
Weather: RA  (moderate rain)

METAR text: LLBG 152220Z 17011KT 8000 RA FEW019 BKN025 12/09 Q1015 NOSIG
Conditions at: LLBG (BEN-GURION(CIV/M, IL) observed 2220 UTC 15 February 2019
Temperature: 12.0°C (54°F)
Dewpoint: 9.0°C (48°F) [RH = 82%]
Pressure (altimeter): 29.97 inches Hg (1015.0 mb)
Winds: from the S (170 degrees) at 13 MPH (11 knots; 5.7 m/s)
Visibility: 5 miles ( 8 km)
Ceiling: 2500 feet AGL
Clouds: few clouds at 1900 feet AGL
broken clouds at 2500 feet AGL
Weather: RA  (moderate rain)

METAR text: LLBG 152150Z 20008KT 9999 BKN025 12/10 Q1016 RERA TEMPO 7000 RA FEW025TCU
Conditions at: LLBG (BEN-GURION(CIV/M, IL) observed 2150 UTC 15 February 2019
Temperature: 12.0°C (54°F)
Dewpoint: 10.0°C (50°F) [RH = 88%]
Pressure (altimeter): 30.00 inches Hg (1016.0 mb)
Winds: from the SSW (200 degrees) at 9 MPH (8 knots; 4.1 m/s)
Visibility: 6 or more miles (10+ km)
Ceiling: 2500 feet AGL
Clouds: broken clouds at 2500 feet AGL
Weather: no significant weather observed at this time

METAR text: LLBG 152120Z 20013KT 8000 RA FEW025 BKN030 14/08 Q1015 NOSIG
Conditions at: LLBG (BEN-GURION(CIV/M, IL) observed 2120 UTC 15 February 2019
Temperature: 14.0°C (57°F)
Dewpoint: 8.0°C (46°F) [RH = 67%]
Pressure (altimeter): 29.97 inches Hg (1015.0 mb)
Winds: from the SSW (200 degrees) at 15 MPH (13 knots; 6.7 m/s)
Visibility: 5 miles ( 8 km)
Ceiling: 3000 feet AGL
Clouds: few clouds at 2500 feet AGL
broken clouds at 3000 feet AGL
Weather: RA  (moderate rain)

METAR text: LLBG 152050Z 20013KT 9999 BKN035 14/08 Q1015 TEMPO 7000 RA FEW025TCU RMK RERA
Conditions at: LLBG (BEN-GURION(CIV/M, IL) observed 2050 UTC 15 February 2019
Temperature: 14.0°C (57°F)
Dewpoint: 8.0°C (46°F) [RH = 67%]
Pressure (altimeter): 29.97 inches Hg (1015.0 mb)
Winds: from the SSW (200 degrees) at 15 MPH (13 knots; 6.7 m/s)
Visibility: 6 or more miles (10+ km)
Ceiling: 3500 feet AGL
Clouds: broken clouds at 3500 feet AGL
Weather: no significant weather observed at this time

METAR text: LLBG 152020Z 20013KT 9999 -RA BKN045 15/07 Q1015 NOSIG
Conditions at: LLBG (BEN-GURION(CIV/M, IL) observed 2020 UTC 15 February 2019
Temperature: 15.0°C (59°F)
Dewpoint: 7.0°C (45°F) [RH = 59%]
Pressure (altimeter): 29.97 inches Hg (1015.0 mb)
Winds: from the SSW (200 degrees) at 15 MPH (13 knots; 6.7 m/s)
Visibility: 6 or more miles (10+ km)
Ceiling: 4500 feet AGL
Clouds: broken clouds at 4500 feet AGL
Weather: -RA  (light rain)

METAR text: LLBG 151950Z 19011KT 9999 BKN038 14/07 Q1015 NOSIG
Conditions at: LLBG (BEN-GURION(CIV/M, IL) observed 1950 UTC 15 February 2019
Temperature: 14.0°C (57°F)
Dewpoint: 7.0°C (45°F) [RH = 63%]
Pressure (altimeter): 29.97 inches Hg (1015.0 mb)
Winds: from the S (190 degrees) at 13 MPH (11 knots; 5.7 m/s)
Visibility: 6 or more miles (10+ km)
Ceiling: 3800 feet AGL
Clouds: broken clouds at 3800 feet AGL
Weather: no significant weather observed at this time

METAR text: LLBG 151920Z 17009KT 9999 BKN035 14/07 Q1015 NOSIG
Conditions at: LLBG (BEN-GURION(CIV/M, IL) observed 1920 UTC 15 February 2019
Temperature: 14.0°C (57°F)
Dewpoint: 7.0°C (45°F) [RH = 63%]
Pressure (altimeter): 29.97 inches Hg (1015.0 mb)
Winds: from the S (170 degrees) at 10 MPH (9 knots; 4.6 m/s)
Visibility: 6 or more miles (10+ km)
Ceiling: 3500 feet AGL
Clouds: broken clouds at 3500 feet AGL
Weather: no significant weather observed at this time

METAR text: LLBG 151850Z 17010KT 9999 BKN035 14/06 Q1015 NOSIG
Conditions at: LLBG (BEN-GURION(CIV/M, IL) observed 1850 UTC 15 February 2019
Temperature: 14.0°C (57°F)
Dewpoint: 6.0°C (43°F) [RH = 58%]
Pressure (altimeter): 29.97 inches Hg (1015.0 mb)
Winds: from the S (170 degrees) at 12 MPH (10 knots; 5.1 m/s)
Visibility: 6 or more miles (10+ km)
Ceiling: 3500 feet AGL
Clouds: broken clouds at 3500 feet AGL
Weather: no significant weather observed at this time

METAR text: LLBG 151820Z 18009KT 9999 BKN035 14/06 Q1015 NOSIG
Conditions at: LLBG (BEN-GURION(CIV/M, IL) observed 1820 UTC 15 February 2019
Temperature: 14.0°C (57°F)
Dewpoint: 6.0°C (43°F) [RH = 58%]
Pressure (altimeter): 29.97 inches Hg (1015.0 mb)
Winds: from the S (180 degrees) at 10 MPH (9 knots; 4.6 m/s)
Visibility: 6 or more miles (10+ km)
Ceiling: 3500 feet AGL
Clouds: broken clouds at 3500 feet AGL
Weather: no significant weather observed at this time

METAR text: LLBG 151750Z 18008KT 9999 BKN040 14/07 Q1014 NOSIG RMK RERA
Conditions at: LLBG (BEN-GURION(CIV/M, IL) observed 1750 UTC 15 February 2019
Temperature: 14.0°C (57°F)
Dewpoint: 7.0°C (45°F) [RH = 63%]
Pressure (altimeter): 29.94 inches Hg (1014.0 mb)
Winds: from the S (180 degrees) at 9 MPH (8 knots; 4.1 m/s)
Visibility: 6 or more miles (10+ km)
Ceiling: 4000 feet AGL
Clouds: broken clouds at 4000 feet AGL
Weather: no significant weather observed at this time

METAR text: LLBG 151720Z 18009KT 9000 NSC 15/05 Q1014 NOSIG RMK SCT052
Conditions at: LLBG (BEN-GURION(CIV/M, IL) observed 1720 UTC 15 February 2019
Temperature: 15.0°C (59°F)
Dewpoint: 5.0°C (41°F) [RH = 51%]
Pressure (altimeter): 29.94 inches Hg (1014.0 mb)
Winds: from the S (180 degrees) at 10 MPH (9 knots; 4.6 m/s)
Visibility: 6 miles ( 9 km)
Ceiling: at least 12,000 feet AGL
Clouds: sky clear below 12,000 feet AGL
Weather: no significant weather observed at this time

METAR text: LLBG 151650Z 19009KT 9999 SCT048 15/04 Q1014 NOSIG RMK BKN060
Conditions at: LLBG (BEN-GURION(CIV/M, IL) observed 1650 UTC 15 February 2019
Temperature: 15.0°C (59°F)
Dewpoint: 4.0°C (39°F) [RH = 48%]
Pressure (altimeter): 29.94 inches Hg (1014.0 mb)
Winds: from the S (190 degrees) at 10 MPH (9 knots; 4.6 m/s)
Visibility: 6 or more miles (10+ km)
Ceiling: at least 12,000 feet AGL
Clouds: scattered clouds at 4800 feet AGL
Weather: no significant weather observed at this time

METAR text: LLBG 151620Z 19010KT 9000 SCT048 15/03 Q1014 NOSIG RMK BKN065
Conditions at: LLBG (BEN-GURION(CIV/M, IL) observed 1620 UTC 15 February 2019
Temperature: 15.0°C (59°F)
Dewpoint: 3.0°C (37°F) [RH = 44%]
Pressure (altimeter): 29.94 inches Hg (1014.0 mb)
Winds: from the S (190 degrees) at 12 MPH (10 knots; 5.1 m/s)
Visibility: 6 miles ( 9 km)
Ceiling: at least 12,000 feet AGL
Clouds: scattered clouds at 4800 feet AGL
Weather: no significant weather observed at this time

METAR text: LLBG 151550Z 21011KT 9000 SCT047 15/03 Q1014 NOSIG
Conditions at: LLBG (BEN-GURION(CIV/M, IL) observed 1550 UTC 15 February 2019
Temperature: 15.0°C (59°F)
Dewpoint: 3.0°C (37°F) [RH = 44%]
Pressure (altimeter): 29.94 inches Hg (1014.0 mb)
Winds: from the SSW (210 degrees) at 13 MPH (11 knots; 5.7 m/s)
Visibility: 6 miles ( 9 km)
Ceiling: at least 12,000 feet AGL
Clouds: scattered clouds at 4700 feet AGL
Weather: no significant weather observed at this time

METAR text: LLBG 151520Z 21011KT 6000 SCT030 16/03 Q1014
Conditions at: LLBG (BEN-GURION(CIV/M, IL) observed 1520 UTC 15 February 2019
Temperature: 16.0°C (61°F)
Dewpoint: 3.0°C (37°F) [RH = 42%]
Pressure (altimeter): 29.94 inches Hg (1014.0 mb)
Winds: from the SSW (210 degrees) at 13 MPH (11 knots; 5.7 m/s)
Visibility: 4 miles ( 6 km)
Ceiling: at least 12,000 feet AGL
Clouds: scattered clouds at 3000 feet AGL
Weather: no significant weather observed at this time

METAR text: LLBG 151450Z 22014KT 6000 SCT030 16/03 Q1013
Conditions at: LLBG (BEN-GURION(CIV/M, IL) observed 1450 UTC 15 February 2019
Temperature: 16.0°C (61°F)
Dewpoint: 3.0°C (37°F) [RH = 42%]
Pressure (altimeter): 29.91 inches Hg (1013.0 mb)
Winds: from the SW (220 degrees) at 16 MPH (14 knots; 7.2 m/s)
Visibility: 4 miles ( 6 km)
Ceiling: at least 12,000 feet AGL
Clouds: scattered clouds at 3000 feet AGL
Weather: no significant weather observed at this time

METAR text: LLBG 151420Z 22014KT 5000 HZ SCT030 16/03 Q1013 BECMG 6000 NSC
Conditions at: LLBG (BEN-GURION(CIV/M, IL) observed 1420 UTC 15 February 2019
Temperature: 16.0°C (61°F)
Dewpoint: 3.0°C (37°F) [RH = 42%]
Pressure (altimeter): 29.91 inches Hg (1013.0 mb)
Winds: from the SW (220 degrees) at 16 MPH (14 knots; 7.2 m/s)
Visibility: 3 miles ( 5 km)
Ceiling: at least 12,000 feet AGL
Clouds: scattered clouds at 3000 feet AGL
Weather: HZ  (haze)

METAR text: LLBG 151350Z 22014KT 5000 HZ SCT030 15/04 Q1013 NOSIG
Conditions at: LLBG (BEN-GURION(CIV/M, IL) observed 1350 UTC 15 February 2019
Temperature: 15.0°C (59°F)
Dewpoint: 4.0°C (39°F) [RH = 48%]
Pressure (altimeter): 29.91 inches Hg (1013.0 mb)
Winds: from the SW (220 degrees) at 16 MPH (14 knots; 7.2 m/s)
Visibility: 3 miles ( 5 km)
Ceiling: at least 12,000 feet AGL
Clouds: scattered clouds at 3000 feet AGL
Weather: HZ  (haze)

METAR text: LLBG 151320Z 22013KT 5000 HZ SCT028 15/04 Q1013 NOSIG
Conditions at: LLBG (BEN-GURION(CIV/M, IL) observed 1320 UTC 15 February 2019
Temperature: 15.0°C (59°F)
Dewpoint: 4.0°C (39°F) [RH = 48%]
Pressure (altimeter): 29.91 inches Hg (1013.0 mb)
Winds: from the SW (220 degrees) at 15 MPH (13 knots; 6.7 m/s)
Visibility: 3 miles ( 5 km)
Ceiling: at least 12,000 feet AGL
Clouds: scattered clouds at 2800 feet AGL
Weather: HZ  (haze)

METAR text: LLBG 151250Z 22014KT 8000 SCT028 16/03 Q1013 TEMPO 5000 DU
Conditions at: LLBG (BEN-GURION(CIV/M, IL) observed 1250 UTC 15 February 2019
Temperature: 16.0°C (61°F)
Dewpoint: 3.0°C (37°F) [RH = 42%]
Pressure (altimeter): 29.91 inches Hg (1013.0 mb)
Winds: from the SW (220 degrees) at 16 MPH (14 knots; 7.2 m/s)
Visibility: 5 miles ( 8 km)
Ceiling: at least 12,000 feet AGL
Clouds: scattered clouds at 2800 feet AGL
Weather: no significant weather observed at this time

METAR text: LLBG 151220Z 22014KT 8000 SCT028 16/03 Q1013 TEMPO 5000 DU
Conditions at: LLBG (BEN-GURION(CIV/M, IL) observed 1220 UTC 15 February 2019
Temperature: 16.0°C (61°F)
Dewpoint: 3.0°C (37°F) [RH = 42%]
Pressure (altimeter): 29.91 inches Hg (1013.0 mb)
Winds: from the SW (220 degrees) at 16 MPH (14 knots; 7.2 m/s)
Visibility: 5 miles ( 8 km)
Ceiling: at least 12,000 feet AGL
Clouds: scattered clouds at 2800 feet AGL
Weather: no significant weather observed at this time

METAR text: LLBG 151150Z 22014KT 190V250 9000 FEW026 16/03 Q1013 NOSIG
Conditions at: LLBG (BEN-GURION(CIV/M, IL) observed 1150 UTC 15 February 2019
Temperature: 16.0°C (61°F)
Dewpoint: 3.0°C (37°F) [RH = 42%]
Pressure (altimeter): 29.91 inches Hg (1013.0 mb)
Winds: from the SW (220 degrees) at 16 MPH (14 knots; 7.2 m/s)
Visibility: 6 miles ( 9 km)
Ceiling: at least 12,000 feet AGL
Clouds: few clouds at 2600 feet AGL
Weather: no significant weather observed at this time

METAR text: LLBG 151120Z 21015KT 9000 SCT027 16/03 Q1013 NOSIG
Conditions at: LLBG (BEN-GURION(CIV/M, IL) observed 1120 UTC 15 February 2019
Temperature: 16.0°C (61°F)
Dewpoint: 3.0°C (37°F) [RH = 42%]
Pressure (altimeter): 29.91 inches Hg (1013.0 mb)
Winds: from the SSW (210 degrees) at 17 MPH (15 knots; 7.7 m/s)
Visibility: 6 miles ( 9 km)
Ceiling: at least 12,000 feet AGL
Clouds: scattered clouds at 2700 feet AGL
Weather: no significant weather observed at this time

METAR text: LLBG 151050Z 24018KT 9999 FEW026 BKN033 16/03 Q1013 NOSIG
Conditions at: LLBG (BEN-GURION(CIV/M, IL) observed 1050 UTC 15 February 2019
Temperature: 16.0°C (61°F)
Dewpoint: 3.0°C (37°F) [RH = 42%]
Pressure (altimeter): 29.91 inches Hg (1013.0 mb)
Winds: from the WSW (240 degrees) at 21 MPH (18 knots; 9.3 m/s)
Visibility: 6 or more miles (10+ km)
Ceiling: 3300 feet AGL
Clouds: few clouds at 2600 feet AGL
broken clouds at 3300 feet AGL
Weather: no significant weather observed at this time

METAR text: LLBG 151020Z 22015KT 9000 FEW030 SCT050 15/04 Q1013 NOSIG
Conditions at: LLBG (BEN-GURION(CIV/M, IL) observed 1020 UTC 15 February 2019
Temperature: 15.0°C (59°F)
Dewpoint: 4.0°C (39°F) [RH = 48%]
Pressure (altimeter): 29.91 inches Hg (1013.0 mb)
Winds: from the SW (220 degrees) at 17 MPH (15 knots; 7.7 m/s)
Visibility: 6 miles ( 9 km)
Ceiling: at least 12,000 feet AGL
Clouds: few clouds at 3000 feet AGL
scattered clouds at 5000 feet AGL
Weather: no significant weather observed at this time

METAR text: LLBG 150950Z 22018KT 9000 FEW035 BKN050 14/03 Q1014 NOSIG
Conditions at: LLBG (BEN-GURION(CIV/M, IL) observed 0950 UTC 15 February 2019
Temperature: 14.0°C (57°F)
Dewpoint: 3.0°C (37°F) [RH = 47%]
Pressure (altimeter): 29.94 inches Hg (1014.0 mb)
Winds: from the SW (220 degrees) at 21 MPH (18 knots; 9.3 m/s)
Visibility: 6 miles ( 9 km)
Ceiling: 5000 feet AGL
Clouds: few clouds at 3500 feet AGL
broken clouds at 5000 feet AGL
Weather: no significant weather observed at this time

METAR text: LLBG 150920Z 19016KT 9999 BKN045 15/03 Q1014 NOSIG
Conditions at: LLBG (BEN-GURION(CIV/M, IL) observed 0920 UTC 15 February 2019
Temperature: 15.0°C (59°F)
Dewpoint: 3.0°C (37°F) [RH = 44%]
Pressure (altimeter): 29.94 inches Hg (1014.0 mb)
Winds: from the S (190 degrees) at 18 MPH (16 knots; 8.2 m/s)
Visibility: 6 or more miles (10+ km)
Ceiling: 4500 feet AGL
Clouds: broken clouds at 4500 feet AGL
Weather: no significant weather observed at this time

METAR text: LLBG 150850Z 20017KT 9999 BKN040 14/03 Q1014 NOSIG
Conditions at: LLBG (BEN-GURION(CIV/M, IL) observed 0850 UTC 15 February 2019
Temperature: 14.0°C (57°F)
Dewpoint: 3.0°C (37°F) [RH = 47%]
Pressure (altimeter): 29.94 inches Hg (1014.0 mb)
Winds: from the SSW (200 degrees) at 20 MPH (17 knots; 8.7 m/s)
Visibility: 6 or more miles (10+ km)
Ceiling: 4000 feet AGL
Clouds: broken clouds at 4000 feet AGL
Weather: no significant weather observed at this time

METAR text: LLBG 150820Z 20018KT 9000 SCT035 14/03 Q1014 NOSIG
Conditions at: LLBG (BEN-GURION(CIV/M, IL) observed 0820 UTC 15 February 2019
Temperature: 14.0°C (57°F)
Dewpoint: 3.0°C (37°F) [RH = 47%]
Pressure (altimeter): 29.94 inches Hg (1014.0 mb)
Winds: from the SSW (200 degrees) at 21 MPH (18 knots; 9.3 m/s)
Visibility: 6 miles ( 9 km)
Ceiling: at least 12,000 feet AGL
Clouds: scattered clouds at 3500 feet AGL
Weather: no significant weather observed at this time

METAR text: LLBG 150750Z 18019KT 9000 SCT035 13/02 Q1014 NOSIG
Conditions at: LLBG (BEN-GURION(CIV/M, IL) observed 0750 UTC 15 February 2019
Temperature: 13.0°C (55°F)
Dewpoint: 2.0°C (36°F) [RH = 47%]
Pressure (altimeter): 29.94 inches Hg (1014.0 mb)
Winds: from the S (180 degrees) at 22 MPH (19 knots; 9.8 m/s)
Visibility: 6 miles ( 9 km)
Ceiling: at least 12,000 feet AGL
Clouds: scattered clouds at 3500 feet AGL
Weather: no significant weather observed at this time

METAR text: LLBG 150720Z 19018KT 9000 NSC 13/02 Q1014 NOSIG RMK FEW110
Conditions at: LLBG (BEN-GURION(CIV/M, IL) observed 0720 UTC 15 February 2019
Temperature: 13.0°C (55°F)
Dewpoint: 2.0°C (36°F) [RH = 47%]
Pressure (altimeter): 29.94 inches Hg (1014.0 mb)
Winds: from the S (190 degrees) at 21 MPH (18 knots; 9.3 m/s)
Visibility: 6 miles ( 9 km)
Ceiling: at least 12,000 feet AGL
Clouds: sky clear below 12,000 feet AGL
Weather: no significant weather observed at this time

METAR text: LLBG 150650Z 18017KT 9000 NSC 13/02 Q1014 NOSIG RMK SCT110
Conditions at: LLBG (BEN-GURION(CIV/M, IL) observed 0650 UTC 15 February 2019
Temperature: 13.0°C (55°F)
Dewpoint: 2.0°C (36°F) [RH = 47%]
Pressure (altimeter): 29.94 inches Hg (1014.0 mb)
Winds: from the S (180 degrees) at 20 MPH (17 knots; 8.7 m/s)
Visibility: 6 miles ( 9 km)
Ceiling: at least 12,000 feet AGL
Clouds: sky clear below 12,000 feet AGL
Weather: no significant weather observed at this time

METAR text: LLBG 150620Z 18013KT 9000 NSC 12/02 Q1014 NOSIG RMK BKN110
Conditions at: LLBG (BEN-GURION(CIV/M, IL) observed 0620 UTC 15 February 2019
Temperature: 12.0°C (54°F)
Dewpoint: 2.0°C (36°F) [RH = 50%]
Pressure (altimeter): 29.94 inches Hg (1014.0 mb)
Winds: from the S (180 degrees) at 15 MPH (13 knots; 6.7 m/s)
Visibility: 6 miles ( 9 km)
Ceiling: at least 12,000 feet AGL
Clouds: sky clear below 12,000 feet AGL
Weather: no significant weather observed at this time

METAR text: LLBG 150550Z 17013KT 9000 FEW035 11/02 Q1014 NOSIG RMK SCT120
Conditions at: LLBG (BEN-GURION(CIV/M, IL) observed 0550 UTC 15 February 2019
Temperature: 11.0°C (52°F)
Dewpoint: 2.0°C (36°F) [RH = 54%]
Pressure (altimeter): 29.94 inches Hg (1014.0 mb)
Winds: from the S (170 degrees) at 15 MPH (13 knots; 6.7 m/s)
Visibility: 6 miles ( 9 km)
Ceiling: at least 12,000 feet AGL
Clouds: few clouds at 3500 feet AGL
Weather: no significant weather observed at this time

METAR text: LLBG 150520Z 17014KT 9000 FEW035 11/02 Q1013 NOSIG
Conditions at: LLBG (BEN-GURION(CIV/M, IL) observed 0520 UTC 15 February 2019
Temperature: 11.0°C (52°F)
Dewpoint: 2.0°C (36°F) [RH = 54%]
Pressure (altimeter): 29.91 inches Hg (1013.0 mb)
Winds: from the S (170 degrees) at 16 MPH (14 knots; 7.2 m/s)
Visibility: 6 miles ( 9 km)
Ceiling: at least 12,000 feet AGL
Clouds: few clouds at 3500 feet AGL
Weather: no significant weather observed at this time

METAR text: LLBG 150450Z 17013KT 9000 NSC 10/02 Q1013 NOSIG RMK SCT060
Conditions at: LLBG (BEN-GURION(CIV/M, IL) observed 0450 UTC 15 February 2019
Temperature: 10.0°C (50°F)
Dewpoint: 2.0°C (36°F) [RH = 57%]
Pressure (altimeter): 29.91 inches Hg (1013.0 mb)
Winds: from the S (170 degrees) at 15 MPH (13 knots; 6.7 m/s)
Visibility: 6 miles ( 9 km)
Ceiling: at least 12,000 feet AGL
Clouds: sky clear below 12,000 feet AGL
Weather: no significant weather observed at this time

METAR text: LLBG 150420Z 17012KT 9000 NSC 10/02 Q1013 NOSIG RMK FEW060
Conditions at: LLBG (BEN-GURION(CIV/M, IL) observed 0420 UTC 15 February 2019
Temperature: 10.0°C (50°F)
Dewpoint: 2.0°C (36°F) [RH = 57%]
Pressure (altimeter): 29.91 inches Hg (1013.0 mb)
Winds: from the S (170 degrees) at 14 MPH (12 knots; 6.2 m/s)
Visibility: 6 miles ( 9 km)
Ceiling: at least 12,000 feet AGL
Clouds: sky clear below 12,000 feet AGL
Weather: no significant weather observed at this time

METAR text: LLBG 150350Z 17011KT CAVOK 10/02 Q1013 NOSIG RMK FEW070
Conditions at: LLBG (BEN-GURION(CIV/M, IL) observed 0350 UTC 15 February 2019
Temperature: 10.0°C (50°F)
Dewpoint: 2.0°C (36°F) [RH = 57%]
Pressure (altimeter): 29.91 inches Hg (1013.0 mb)
Winds: from the S (170 degrees) at 13 MPH (11 knots; 5.7 m/s)
Visibility: 6 or more miles (10+ km)
Ceiling: ceiling and visibility are OK
Clouds: unknown
Weather: no significant weather observed at this time

METAR text: LLBG 150320Z 16011KT CAVOK 10/02 Q1013 NOSIG RMK FEW070
Conditions at: LLBG (BEN-GURION(CIV/M, IL) observed 0320 UTC 15 February 2019
Temperature: 10.0°C (50°F)
Dewpoint: 2.0°C (36°F) [RH = 57%]
Pressure (altimeter): 29.91 inches Hg (1013.0 mb)
Winds: from the SSE (160 degrees) at 13 MPH (11 knots; 5.7 m/s)
Visibility: 6 or more miles (10+ km)
Ceiling: ceiling and visibility are OK
Clouds: unknown
Weather: no significant weather observed at this time

METAR text: LLBG 150250Z 16012KT CAVOK 10/02 Q1012 NOSIG RMK FEW070
Conditions at: LLBG (BEN-GURION(CIV/M, IL) observed 0250 UTC 15 February 2019
Temperature: 10.0°C (50°F)
Dewpoint: 2.0°C (36°F) [RH = 57%]
Pressure (altimeter): 29.88 inches Hg (1012.0 mb)
Winds: from the SSE (160 degrees) at 14 MPH (12 knots; 6.2 m/s)
Visibility: 6 or more miles (10+ km)
Ceiling: ceiling and visibility are OK
Clouds: unknown
Weather: no significant weather observed at this time

METAR text: LLBG 150220Z 18015KT 9999 FEW030 10/02 Q1012
Conditions at: LLBG (BEN-GURION(CIV/M, IL) observed 0220 UTC 15 February 2019
Temperature: 10.0°C (50°F)
Dewpoint: 2.0°C (36°F) [RH = 57%]
Pressure (altimeter): 29.88 inches Hg (1012.0 mb)
Winds: from the S (180 degrees) at 17 MPH (15 knots; 7.7 m/s)
Visibility: 6 or more miles (10+ km)
Ceiling: at least 12,000 feet AGL
Clouds: few clouds at 3000 feet AGL
Weather: no significant weather observed at this time

METAR text: LLBG 150150Z 17015KT 9999 FEW030 10/03 Q1012 NOSIG
Conditions at: LLBG (BEN-GURION(CIV/M, IL) observed 0150 UTC 15 February 2019
Temperature: 10.0°C (50°F)
Dewpoint: 3.0°C (37°F) [RH = 62%]
Pressure (altimeter): 29.88 inches Hg (1012.0 mb)
Winds: from the S (170 degrees) at 17 MPH (15 knots; 7.7 m/s)
Visibility: 6 or more miles (10+ km)
Ceiling: at least 12,000 feet AGL
Clouds: few clouds at 3000 feet AGL
Weather: no significant weather observed at this time

METAR text: LLBG 150120Z 18016KT 9999 FEW050 10/03 Q1012 NOSIG
Conditions at: LLBG (BEN-GURION(CIV/M, IL) observed 0120 UTC 15 February 2019
Temperature: 10.0°C (50°F)
Dewpoint: 3.0°C (37°F) [RH = 62%]
Pressure (altimeter): 29.88 inches Hg (1012.0 mb)
Winds: from the S (180 degrees) at 18 MPH (16 knots; 8.2 m/s)
Visibility: 6 or more miles (10+ km)
Ceiling: at least 12,000 feet AGL
Clouds: few clouds at 5000 feet AGL
Weather: no significant weather observed at this time

METAR text: LLBG 150050Z 18015KT 9999 SCT050 10/03 Q1012 NOSIG
Conditions at: LLBG (BEN-GURION(CIV/M, IL) observed 0050 UTC 15 February 2019
Temperature: 10.0°C (50°F)
Dewpoint: 3.0°C (37°F) [RH = 62%]
Pressure (altimeter): 29.88 inches Hg (1012.0 mb)
Winds: from the S (180 degrees) at 17 MPH (15 knots; 7.7 m/s)
Visibility: 6 or more miles (10+ km)
Ceiling: at least 12,000 feet AGL
Clouds: scattered clouds at 5000 feet AGL
Weather: no significant weather observed at this time

METAR text: LLBG 150020Z 17010KT 9999 SCT050 11/04 Q1012 RERA NOSIG
Conditions at: LLBG (BEN-GURION(CIV/M, IL) observed 0020 UTC 15 February 2019
Temperature: 11.0°C (52°F)
Dewpoint: 4.0°C (39°F) [RH = 62%]
Pressure (altimeter): 29.88 inches Hg (1012.0 mb)
Winds: from the S (170 degrees) at 12 MPH (10 knots; 5.1 m/s)
Visibility: 6 or more miles (10+ km)
Ceiling: at least 12,000 feet AGL
Clouds: scattered clouds at 5000 feet AGL
Weather: no significant weather observed at this time

METAR text: LLBG 142350Z 18011KT 9999 RA FEW030TCU BKN050 11/05 Q1012 TEMPO 6000 TSRA FEW030CB BKN035
Conditions at: LLBG (BEN-GURION(CIV/M, IL) observed 2350 UTC 14 February 2019
Temperature: 11.0°C (52°F)
Dewpoint: 5.0°C (41°F) [RH = 66%]
Pressure (altimeter): 29.88 inches Hg (1012.0 mb)
Winds: from the S (180 degrees) at 13 MPH (11 knots; 5.7 m/s)
Visibility: 6 or more miles (10+ km)
Ceiling: 5000 feet AGL
Clouds: few clouds at 3000 feet AGL
broken clouds at 5000 feet AGL
Weather: RA  (moderate rain)

METAR text: LLBG 142320Z 17011KT 9999 FEW030 SCT050 11/05 Q1012 TEMPO 6000 TSRA FEW030CB BKN035
Conditions at: LLBG (BEN-GURION(CIV/M, IL) observed 2320 UTC 14 February 2019
Temperature: 11.0°C (52°F)
Dewpoint: 5.0°C (41°F) [RH = 66%]
Pressure (altimeter): 29.88 inches Hg (1012.0 mb)
Winds: from the S (170 degrees) at 13 MPH (11 knots; 5.7 m/s)
Visibility: 6 or more miles (10+ km)
Ceiling: at least 12,000 feet AGL
Clouds: few clouds at 3000 feet AGL
scattered clouds at 5000 feet AGL
Weather: no significant weather observed at this time

METAR text: LLBG 142250Z 15009KT 9999 FEW030 SCT050 12/03 Q1012 TEMPO 6000 TSRA FEW030CB BKN035
Conditions at: LLBG (BEN-GURION(CIV/M, IL) observed 2250 UTC 14 February 2019
Temperature: 12.0°C (54°F)
Dewpoint: 3.0°C (37°F) [RH = 54%]
Pressure (altimeter): 29.88 inches Hg (1012.0 mb)
Winds: from the SSE (150 degrees) at 10 MPH (9 knots; 4.6 m/s)
Visibility: 6 or more miles (10+ km)
Ceiling: at least 12,000 feet AGL
Clouds: few clouds at 3000 feet AGL
scattered clouds at 5000 feet AGL
Weather: no significant weather observed at this time

METAR text: LLBG 142220Z 13008KT 9999 BKN050 11/06 Q1012 TEMPO 6000 RA FEW030TCU BKN035
Conditions at: LLBG (BEN-GURION(CIV/M, IL) observed 2220 UTC 14 February 2019
Temperature: 11.0°C (52°F)
Dewpoint: 6.0°C (43°F) [RH = 71%]
Pressure (altimeter): 29.88 inches Hg (1012.0 mb)
Winds: from the SE (130 degrees) at 9 MPH (8 knots; 4.1 m/s)
Visibility: 6 or more miles (10+ km)
Ceiling: 5000 feet AGL
Clouds: broken clouds at 5000 feet AGL
Weather: no significant weather observed at this time

METAR text: LLBG 142150Z 19004KT 9999 BKN050 11/05 Q1013 RESHRA RESHGS TEMPO 6000 TSRA FEW030CB BKN035
Conditions at: LLBG (BEN-GURION(CIV/M, IL) observed 2150 UTC 14 February 2019
Temperature: 11.0°C (52°F)
Dewpoint: 5.0°C (41°F) [RH = 66%]
Pressure (altimeter): 29.91 inches Hg (1013.0 mb)
Winds: from the S (190 degrees) at 5 MPH (4 knots; 2.1 m/s)
Visibility: 6 or more miles (10+ km)
Ceiling: 5000 feet AGL
Clouds: broken clouds at 5000 feet AGL
Weather: SHGS  (small hail or graupel showers)

METAR text: LLBG 142120Z 24011KT 9999 RA VCTS FEW040CB SCT050 13/04 Q1013 TEMPO 6000 TSRA FEW030CB BKN035 RMK SCT060
Conditions at: LLBG (BEN-GURION(CIV/M, IL) observed 2120 UTC 14 February 2019
Temperature: 13.0°C (55°F)
Dewpoint: 4.0°C (39°F) [RH = 54%]
Pressure (altimeter): 29.91 inches Hg (1013.0 mb)
Winds: from the WSW (240 degrees) at 13 MPH (11 knots; 5.7 m/s)
Visibility: 6 or more miles (10+ km)
Ceiling: at least 12,000 feet AGL
Clouds: few clouds at 4000 feet AGL
scattered clouds at 5000 feet AGL
Weather: RA VCTS  (moderate rain, thunderstorm in vicinity)

METAR text: LLBG 142050Z 25018KT 9999 SCT050 13/04 Q1013 TEMPO 6000 RA FEW030TCU BKN035 RMK SCT070
Conditions at: LLBG (BEN-GURION(CIV/M, IL) observed 2050 UTC 14 February 2019
Temperature: 13.0°C (55°F)
Dewpoint: 4.0°C (39°F) [RH = 54%]
Pressure (altimeter): 29.91 inches Hg (1013.0 mb)
Winds: from the WSW (250 degrees) at 21 MPH (18 knots; 9.3 m/s)
Visibility: 6 or more miles (10+ km)
Ceiling: at least 12,000 feet AGL
Clouds: scattered clouds at 5000 feet AGL
Weather: no significant weather observed at this time

METAR text: LLBG 142020Z 20008KT 9999 BKN050 12/05 Q1013 TEMPO 6000 RA FEW030TCU BKN035
Conditions at: LLBG (BEN-GURION(CIV/M, IL) observed 2020 UTC 14 February 2019
Temperature: 12.0°C (54°F)
Dewpoint: 5.0°C (41°F) [RH = 62%]
Pressure (altimeter): 29.91 inches Hg (1013.0 mb)
Winds: from the SSW (200 degrees) at 9 MPH (8 knots; 4.1 m/s)
Visibility: 6 or more miles (10+ km)
Ceiling: 5000 feet AGL
Clouds: broken clouds at 5000 feet AGL
Weather: no significant weather observed at this time

METAR text: LLBG 141950Z 16008KT 9999 BKN040 12/05 Q1013 RERA NOSIG
Conditions at: LLBG (BEN-GURION(CIV/M, IL) observed 1950 UTC 14 February 2019
Temperature: 12.0°C (54°F)
Dewpoint: 5.0°C (41°F) [RH = 62%]
Pressure (altimeter): 29.91 inches Hg (1013.0 mb)
Winds: from the SSE (160 degrees) at 9 MPH (8 knots; 4.1 m/s)
Visibility: 6 or more miles (10+ km)
Ceiling: 4000 feet AGL
Clouds: broken clouds at 4000 feet AGL
Weather: no significant weather observed at this time

METAR text: LLBG 141920Z 15007KT 9999 RA BKN040 12/05 Q1013 NOSIG
Conditions at: LLBG (BEN-GURION(CIV/M, IL) observed 1920 UTC 14 February 2019
Temperature: 12.0°C (54°F)
Dewpoint: 5.0°C (41°F) [RH = 62%]
Pressure (altimeter): 29.91 inches Hg (1013.0 mb)
Winds: from the SSE (150 degrees) at 8 MPH (7 knots; 3.6 m/s)
Visibility: 6 or more miles (10+ km)
Ceiling: 4000 feet AGL
Clouds: broken clouds at 4000 feet AGL
Weather: RA  (moderate rain)

METAR text: LLBG 141850Z 22009KT 9999 -RA BKN040 13/04 Q1013 RERA NOSIG
Conditions at: LLBG (BEN-GURION(CIV/M, IL) observed 1850 UTC 14 February 2019
Temperature: 13.0°C (55°F)
Dewpoint: 4.0°C (39°F) [RH = 54%]
Pressure (altimeter): 29.91 inches Hg (1013.0 mb)
Winds: from the SW (220 degrees) at 10 MPH (9 knots; 4.6 m/s)
Visibility: 6 or more miles (10+ km)
Ceiling: 4000 feet AGL
Clouds: broken clouds at 4000 feet AGL
Weather: -RA  (light rain)

METAR text: LLBG 141820Z VRB03KT 9999 RA BKN045 13/05 Q1013 TEMPO RA FEW025TCU
Conditions at: LLBG (BEN-GURION(CIV/M, IL) observed 1820 UTC 14 February 2019
Temperature: 13.0°C (55°F)
Dewpoint: 5.0°C (41°F) [RH = 58%]
Pressure (altimeter): 29.91 inches Hg (1013.0 mb)
Winds: variable direction winds at 3 MPH (3 knots; 1.5 m/s)
Visibility: 6 or more miles (10+ km)
Ceiling: 4500 feet AGL
Clouds: broken clouds at 4500 feet AGL
Weather: RA  (moderate rain)

METAR text: LLBG 141750Z 19006KT 160V220 9999 BKN050 14/04 Q1013 TEMPO RA FEW025TCU
Conditions at: LLBG (BEN-GURION(CIV/M, IL) observed 1750 UTC 14 February 2019
Temperature: 14.0°C (57°F)
Dewpoint: 4.0°C (39°F) [RH = 51%]
Pressure (altimeter): 29.91 inches Hg (1013.0 mb)
Winds: from the S (190 degrees) at 7 MPH (6 knots; 3.1 m/s)
Visibility: 6 or more miles (10+ km)
Ceiling: 5000 feet AGL
Clouds: broken clouds at 5000 feet AGL
Weather: no significant weather observed at this time

METAR text: LLBG 141720Z 18008KT 9999 FEW050 14/04 Q1013 NOSIG RMK SCT080
Conditions at: LLBG (BEN-GURION(CIV/M, IL) observed 1720 UTC 14 February 2019
Temperature: 14.0°C (57°F)
Dewpoint: 4.0°C (39°F) [RH = 51%]
Pressure (altimeter): 29.91 inches Hg (1013.0 mb)
Winds: from the S (180 degrees) at 9 MPH (8 knots; 4.1 m/s)
Visibility: 6 or more miles (10+ km)
Ceiling: at least 12,000 feet AGL
Clouds: few clouds at 5000 feet AGL
Weather: no significant weather observed at this time

Forecast for: LLBG (BEN-GURION(CIV/M, IL)
Text: TAF LLBG 152301Z 1600/1624 19010KT 9999 SCT030
Forecast period: 0000 to 0700 UTC 16 February 2019
Forecast type: FROM: standard forecast or significant change
Winds: from the S (190 degrees) at 12 MPH (10 knots; 5.1 m/s)
Visibility: 6 or more miles 10+ km)
Ceiling: at least 12,000 feet AGL
Clouds: scattered clouds at 3000 feet AGL
Weather: no significant weather forecast for this period
Text: TEMPO 1600/1607 23018G28KT 5000 TSRA FEW020CB BKN025
Forecast period: 0000 to 0700 UTC 16 February 2019
Forecast type: TEMPORARY: The following changes expected for less than half the time period
Winds: from the SW (230 degrees) at 21 MPH (18 knots; 9.3 m/s)
gusting to 32 MPH (28 knots; 14.4 m/s)
Visibility: 3 miles (5 km)
Ceiling: 2500 feet AGL
Clouds: few clouds at 2000 feet AGL
broken clouds at 2500 feet AGL
Weather: TSRA  (rain associated with thunderstorm(s))
Text: BECMG 1607/1609 24016KT
Forecast period: 0700 to 1500 UTC 16 February 2019
Forecast type: BECOMING: Conditions expected to become as follows by 0900 UTC 16 February 2019
Winds: from the WSW (240 degrees) at 18 MPH (16 knots; 8.2 m/s)
Visibility: 6 or more miles 10+ km)
Ceiling: at least 12,000 feet AGL
Clouds: scattered clouds at 3000 feet AGL
Weather: no significant weather forecast for this period
Text: PROB40 1609/1615 24018G28KT 5000 TSRA FEW020CB BKN025
Forecast period: 0900 to 1500 UTC 16 February 2019
Forecast type: PROBABLE: 40 percent likelihood of the following during this time
Winds: from the WSW (240 degrees) at 21 MPH (18 knots; 9.3 m/s)
gusting to 32 MPH (28 knots; 14.4 m/s)
Visibility: 3 miles (5 km)
Ceiling: 2500 feet AGL
Clouds: few clouds at 2000 feet AGL
broken clouds at 2500 feet AGL
Weather: TSRA  (rain associated with thunderstorm(s))
Text: BECMG 1615/1617 24007KT
Forecast period: 1500 UTC 16 February 2019 to 0000 UTC 17 February 2019
Forecast type: BECOMING: Conditions expected to become as follows by 1700 UTC 16 February 2019
Winds: from the WSW (240 degrees) at 8 MPH (7 knots; 3.6 m/s)
Visibility: 6 or more miles 10+ km)
Ceiling: at least 12,000 feet AGL
Clouds: scattered clouds at 3000 feet AGL
Weather: no significant weather forecast for this period
Text: PROB40 1617/1624 7000 RA FEW025TCU BKN030 TX15/1612Z TN10/1604Z
Forecast period: 1700 UTC 16 February 2019 to 0000 UTC 17 February 2019
Forecast type: PROBABLE: 40 percent likelihood of the following during this time
Visibility: 4 miles (7 km)
Ceiling: 3000 feet AGL
Clouds: few clouds at 2500 feet AGL
broken clouds at 3000 feet AGL
Weather: RA  (moderate rain)